Time,TemperatureF,DewpointF,PressureIn,WindDirection,WindDirectionDegrees,WindSpeedMPH,WindSpeedGustMPH,Humidity,HourlyPrecipIn,Conditions,Clouds,dailyrainin,SoftwareType,DateUTC
2013-01-07 00:00:00,38.4,37.9,30.16,North,0,0.0,0.0,98,0.00,,,0.00,LWC V2.00 B2112,2013-01-07 08:00:00,
2013-01-07 00:10:00,37.3,36.8,30.16,North,0,0.0,0.0,98,0.00,,,0.00,LWC V2.00 B2112,2013-01-07 08:10:00,
2013-01-07 00:20:00,37.3,36.8,30.16,North,0,0.0,0.0,98,0.00,,,0.00,LWC V2.00 B2112,2013-01-07 08:20:00,
2013-01-07 00:30:00,37.3,36.8,30.16,North,0,0.0,0.0,98,0.00,,,0.00,LWC V2.00 B2112,2013-01-07 08:30:00,
2013-01-07 00:40:00,36.9,36.4,30.15,North,0,0.0,0.0,98,0.00,,,0.00,LWC V2.00 B2112,2013-01-07 08:40:00,
2013-01-07 00:50:00,36.9,36.4,30.15,North,0,0.0,0.0,98,0.00,,,0.00,LWC V2.00 B2112,2013-01-07 08:50:00,
2013-01-07 01:00:00,36.9,36.4,30.15,North,0,0.0,0.0,98,0.00,,,0.00,LWC V2.00 B2112,2013-01-07 09:00:00,
2013-01-07 01:10:00,36.7,36.2,30.15,North,0,0.0,0.0,98,0.00,,,0.00,LWC V2.00 B2112,2013-01-07 09:10:00,
2013-01-07 01:20:00,36.7,36.2,30.15,North,0,0.0,0.0,98,0.00,,,0.00,LWC V2.00 B2112,2013-01-07 09:20:00,
2013-01-07 01:30:00,36.7,36.2,30.15,North,0,0.0,0.0,98,0.00,,,0.00,LWC V2.00 B2112,2013-01-07 09:30:00,
2013-01-07 01:40:00,36.3,35.8,30.15,North,0,0.0,0.0,98,0.00,,,0.00,LWC V2.00 B2112,2013-01-07 09:40:00,
2013-01-07 01:50:00,36.3,35.8,30.15,North,0,0.0,0.0,98,0.00,,,0.00,LWC V2.00 B2112,2013-01-07 09:50:00,
2013-01-07 02:00:00,36.3,35.8,30.15,North,0,0.0,0.0,98,0.00,,,0.00,LWC V2.00 B2112,2013-01-07 10:00:00,
2013-01-07 02:10:00,35.9,35.4,30.16,North,0,0.0,0.0,98,0.00,,,0.00,LWC V2.00 B2112,2013-01-07 10:10:00,
2013-01-07 02:20:00,35.9,35.4,30.16,North,0,0.0,0.0,98,0.00,,,0.00,LWC V2.00 B2112,2013-01-07 10:20:00,
2013-01-07 02:30:00,35.9,35.4,30.16,North,0,0.0,0.0,98,0.00,,,0.00,LWC V2.00 B2112,2013-01-07 10:30:00,
2013-01-07 02:40:00,36.3,35.8,30.17,North,0,0.0,0.0,98,0.00,,,0.00,LWC V2.00 B2112,2013-01-07 10:40:00,
2013-01-07 02:50:00,36.3,35.8,30.17,North,0,0.0,0.0,98,0.00,,,0.00,LWC V2.00 B2112,2013-01-07 10:50:00,
2013-01-07 03:00:00,36.3,35.8,30.17,North,0,0.0,0.0,98,0.00,,,0.00,LWC V2.00 B2112,2013-01-07 11:00:00,
2013-01-07 03:10:00,35.9,35.4,30.18,North,0,0.0,0.0,98,0.00,,,0.00,LWC V2.00 B2112,2013-01-07 11:10:00,
2013-01-07 03:20:00,35.9,35.4,30.18,North,0,0.0,0.0,98,0.00,,,0.00,LWC V2.00 B2112,2013-01-07 11:20:00,
2013-01-07 03:30:00,35.9,35.4,30.18,North,0,0.0,0.0,98,0.00,,,0.00,LWC V2.00 B2112,2013-01-07 11:30:00,
2013-01-07 03:40:00,35.9,35.4,30.17,North,0,0.0,0.0,98,0.00,,,0.00,LWC V2.00 B2112,2013-01-07 11:40:00,
2013-01-07 03:50:00,35.9,35.4,30.17,North,0,0.0,0.0,98,0.00,,,0.00,LWC V2.00 B2112,2013-01-07 11:50:00,
2013-01-07 04:00:00,35.9,35.4,30.17,North,0,0.0,0.0,98,0.00,,,0.00,LWC V2.00 B2112,2013-01-07 12:00:00,
2013-01-07 04:10:00,36.2,35.7,30.17,North,0,0.0,0.0,98,0.00,,,0.00,LWC V2.00 B2112,2013-01-07 12:10:00,
2013-01-07 04:20:00,36.2,35.7,30.17,North,0,0.0,0.0,98,0.00,,,0.00,LWC V2.00 B2112,2013-01-07 12:20:00,
2013-01-07 04:30:00,36.2,35.7,30.17,North,0,0.0,0.0,98,0.00,,,0.00,LWC V2.00 B2112,2013-01-07 12:30:00,
2013-01-07 04:40:00,35.5,35.0,30.17,North,0,0.0,0.0,98,0.00,,,0.00,LWC V2.00 B2112,2013-01-07 12:40:00,
2013-01-07 04:50:00,35.5,35.0,30.17,North,0,0.0,0.0,98,0.00,,,0.00,LWC V2.00 B2112,2013-01-07 12:50:00,
2013-01-07 05:00:00,35.5,35.0,30.17,North,0,0.0,0.0,98,0.00,,,0.00,LWC V2.00 B2112,2013-01-07 13:00:00,
2013-01-07 05:10:00,35.3,34.8,30.15,North,0,0.0,0.0,98,0.00,,,0.00,LWC V2.00 B2112,2013-01-07 13:10:00,
2013-01-07 05:20:00,35.3,34.8,30.15,North,0,0.0,0.0,98,0.00,,,0.00,LWC V2.00 B2112,2013-01-07 13:20:00,
2013-01-07 05:30:00,35.3,34.8,30.15,North,0,0.0,0.0,98,0.00,,,0.00,LWC V2.00 B2112,2013-01-07 13:30:00,
2013-01-07 05:40:00,35.5,35.2,30.15,North,0,0.0,0.0,99,0.00,,,0.00,LWC V2.00 B2112,2013-01-07 13:40:00,
2013-01-07 05:50:00,35.5,35.2,30.15,North,0,0.0,0.0,99,0.00,,,0.00,LWC V2.00 B2112,2013-01-07 13:50:00,
2013-01-07 06:00:00,35.5,35.2,30.15,North,0,0.0,0.0,99,0.00,,,0.00,LWC V2.00 B2112,2013-01-07 14:00:00,
2013-01-07 06:10:00,35.4,35.2,30.16,North,0,0.0,0.0,99,0.00,,,0.00,LWC V2.00 B2112,2013-01-07 14:10:00,
2013-01-07 06:20:00,35.4,35.2,30.16,North,0,0.0,0.0,99,0.00,,,0.00,LWC V2.00 B2112,2013-01-07 14:20:00,
2013-01-07 06:30:00,35.4,35.2,30.16,North,0,0.0,0.0,99,0.00,,,0.00,LWC V2.00 B2112,2013-01-07 14:30:00,
2013-01-07 06:40:00,35.8,35.5,30.17,North,0,0.0,0.0,99,0.00,,,0.00,LWC V2.00 B2112,2013-01-07 14:40:00,
2013-01-07 06:50:00,35.8,35.5,30.17,North,0,0.0,0.0,99,0.00,,,0.00,LWC V2.00 B2112,2013-01-07 14:50:00,
2013-01-07 07:00:00,35.8,35.5,30.17,North,0,0.0,0.0,99,0.00,,,0.00,LWC V2.00 B2112,2013-01-07 15:00:00,
2013-01-07 07:10:00,35.8,35.5,30.17,North,0,0.0,0.0,99,0.00,,,0.00,LWC V2.00 B2112,2013-01-07 15:10:00,
2013-01-07 07:20:00,35.8,35.5,30.17,North,0,0.0,0.0,99,0.00,,,0.00,LWC V2.00 B2112,2013-01-07 15:20:00,
2013-01-07 07:30:00,35.8,35.5,30.17,North,0,0.0,0.0,99,0.00,,,0.00,LWC V2.00 B2112,2013-01-07 15:30:00,
2013-01-07 07:40:00,36.1,35.9,30.17,North,0,0.0,0.0,99,0.00,,,0.00,LWC V2.00 B2112,2013-01-07 15:40:00,
2013-01-07 07:50:00,36.1,35.9,30.17,North,0,0.0,0.0,99,0.00,,,0.00,LWC V2.00 B2112,2013-01-07 15:50:00,
2013-01-07 08:00:00,36.1,35.9,30.17,North,0,0.0,0.0,99,0.00,,,0.00,LWC V2.00 B2112,2013-01-07 16:00:00,
2013-01-07 08:10:00,36.5,36.2,30.16,North,0,0.0,0.0,99,0.00,,,0.00,LWC V2.00 B2112,2013-01-07 16:10:00,
2013-01-07 08:20:00,36.5,36.2,30.16,North,0,0.0,0.0,99,0.00,,,0.00,LWC V2.00 B2112,2013-01-07 16:20:00,
2013-01-07 08:32:00,38.4,38.1,30.19,SSE,148,0.0,0.0,99,0.00,,,0.01,LWC V2.00 B2112,2013-01-07 16:32:00,
2013-01-07 08:37:00,38.4,38.1,30.20,SSE,148,0.0,0.0,99,0.00,,,0.01,LWC V2.00 B2112,2013-01-07 16:37:00,
2013-01-07 08:42:00,38.7,38.4,30.20,SSE,148,0.0,0.0,99,0.00,,,0.01,LWC V2.00 B2112,2013-01-07 16:42:00,
2013-01-07 08:47:00,38.9,38.6,30.20,SSE,148,0.0,0.0,99,0.00,,,0.01,LWC V2.00 B2112,2013-01-07 16:47:00,
2013-01-07 08:52:00,39.3,39.0,30.20,SSE,148,0.0,0.0,99,0.00,,,0.01,LWC V2.00 B2112,2013-01-07 16:52:00,
2013-01-07 08:57:00,39.7,39.4,30.21,SSE,148,0.0,0.0,99,0.00,,,0.01,LWC V2.00 B2112,2013-01-07 16:57:00,
2013-01-07 09:02:00,40.3,40.0,30.20,SSE,148,0.0,0.0,99,0.00,,,0.01,LWC V2.00 B2112,2013-01-07 17:02:00,
2013-01-07 09:07:00,40.8,40.5,30.20,SSE,148,0.0,0.0,99,0.00,,,0.01,LWC V2.00 B2112,2013-01-07 17:07:00,
2013-01-07 09:12:00,41.2,40.9,30.19,SSE,148,0.0,0.0,99,0.00,,,0.01,LWC V2.00 B2112,2013-01-07 17:12:00,
2013-01-07 09:17:00,42.0,41.7,30.20,SE,141,0.0,0.0,99,0.00,,,0.01,LWC V2.00 B2112,2013-01-07 17:17:00,
2013-01-07 09:22:00,42.4,42.1,30.20,SE,146,0.0,0.0,99,0.00,,,0.01,LWC V2.00 B2112,2013-01-07 17:22:00,
2013-01-07 09:27:00,42.8,42.5,30.21,SE,146,0.0,0.0,99,0.00,,,0.01,LWC V2.00 B2112,2013-01-07 17:27:00,
2013-01-07 09:32:00,43.0,42.7,30.21,SSE,147,0.0,0.0,99,0.00,,,0.01,LWC V2.00 B2112,2013-01-07 17:32:00,
2013-01-07 09:37:00,43.3,43.0,30.22,SE,146,0.0,0.0,99,0.00,,,0.01,LWC V2.00 B2112,2013-01-07 17:37:00,
2013-01-07 09:42:00,43.6,43.3,30.22,SE,146,0.0,0.0,99,0.00,,,0.01,LWC V2.00 B2112,2013-01-07 17:42:00,
2013-01-07 09:47:00,43.8,43.5,30.22,SE,146,0.0,0.0,99,0.00,,,0.01,LWC V2.00 B2112,2013-01-07 17:47:00,
2013-01-07 09:52:00,43.9,43.6,30.22,ESE,113,0.0,0.0,99,0.00,,,0.01,LWC V2.00 B2112,2013-01-07 17:52:00,
2013-01-07 09:57:00,44.0,43.7,30.22,ESE,114,0.0,0.0,99,0.00,,,0.01,LWC V2.00 B2112,2013-01-07 17:57:00,
2013-01-07 10:02:00,44.1,43.8,30.23,ESE,114,0.0,0.0,99,0.00,,,0.01,LWC V2.00 B2112,2013-01-07 18:02:00,
2013-01-07 10:07:00,44.4,44.1,30.23,ESE,115,0.0,0.0,99,0.00,,,0.01,LWC V2.00 B2112,2013-01-07 18:07:00,
2013-01-07 10:12:00,44.7,44.4,30.23,ESE,115,0.0,0.0,99,0.00,,,0.01,LWC V2.00 B2112,2013-01-07 18:12:00,
2013-01-07 10:17:00,44.9,44.6,30.22,ESE,115,0.0,0.0,99,0.00,,,0.01,LWC V2.00 B2112,2013-01-07 18:17:00,
2013-01-07 10:22:00,45.1,44.8,30.22,ESE,115,0.0,0.0,99,0.00,,,0.01,LWC V2.00 B2112,2013-01-07 18:22:00,
2013-01-07 10:27:00,45.3,45.0,30.22,ESE,113,0.0,0.0,99,0.00,,,0.01,LWC V2.00 B2112,2013-01-07 18:27:00,
2013-01-07 10:32:00,45.4,45.1,30.22,ESE,113,0.0,0.0,99,0.00,,,0.01,LWC V2.00 B2112,2013-01-07 18:32:00,
2013-01-07 10:37:00,45.5,45.2,30.21,ESE,114,0.0,0.0,99,0.00,,,0.01,LWC V2.00 B2112,2013-01-07 18:37:00,
2013-01-07 10:42:00,45.7,45.4,30.20,SE,126,0.0,0.0,99,0.00,,,0.01,LWC V2.00 B2112,2013-01-07 18:42:00,
2013-01-07 10:47:00,46.0,45.7,30.20,SE,126,0.0,0.0,99,0.00,,,0.01,LWC V2.00 B2112,2013-01-07 18:47:00,
2013-01-07 10:52:00,46.4,46.1,30.20,SE,125,0.0,0.0,99,0.00,,,0.01,LWC V2.00 B2112,2013-01-07 18:52:00,
2013-01-07 10:57:00,46.5,46.2,30.20,SE,126,0.0,0.0,99,0.00,,,0.01,LWC V2.00 B2112,2013-01-07 18:57:00,
2013-01-07 11:02:00,47.0,46.7,30.20,SE,132,0.0,0.0,99,0.00,,,0.01,LWC V2.00 B2112,2013-01-07 19:02:00,
2013-01-07 11:07:00,47.6,47.3,30.20,NNE,16,0.0,1.0,99,0.00,,,0.01,LWC V2.00 B2112,2013-01-07 19:07:00,
2013-01-07 11:12:00,48.5,48.2,30.20,NNE,27,2.0,3.0,99,0.00,,,0.01,LWC V2.00 B2112,2013-01-07 19:12:00,
2013-01-07 11:17:00,49.1,48.8,30.20,NE,40,1.0,4.0,99,0.00,,,0.01,LWC V2.00 B2112,2013-01-07 19:17:00,
2013-01-07 11:22:00,49.0,48.7,30.20,ESE,112,0.0,0.0,99,0.00,,,0.01,LWC V2.00 B2112,2013-01-07 19:22:00,
2013-01-07 11:27:00,48.9,48.6,30.19,ESE,115,0.0,0.0,99,0.00,,,0.01,LWC V2.00 B2112,2013-01-07 19:27:00,
2013-01-07 11:32:00,48.9,48.6,30.19,SE,140,0.0,0.0,99,0.00,,,0.01,LWC V2.00 B2112,2013-01-07 19:32:00,
2013-01-07 11:37:00,49.3,49.0,30.19,SE,146,0.0,0.0,99,0.00,,,0.01,LWC V2.00 B2112,2013-01-07 19:37:00,
2013-01-07 11:42:00,49.7,49.4,30.18,ESE,113,1.0,2.0,99,0.00,,,0.01,LWC V2.00 B2112,2013-01-07 19:42:00,
2013-01-07 11:47:00,50.0,49.7,30.18,ESE,121,1.0,2.0,99,0.00,,,0.01,LWC V2.00 B2112,2013-01-07 19:47:00,
2013-01-07 11:52:00,50.4,50.1,30.18,NW,309,1.0,1.0,99,0.00,,,0.01,LWC V2.00 B2112,2013-01-07 19:52:00,
2013-01-07 11:57:00,50.6,50.3,30.18,NE,54,0.0,2.0,99,0.00,,,0.01,LWC V2.00 B2112,2013-01-07 19:57:00,
2013-01-07 12:02:00,50.7,50.4,30.18,South,179,2.0,3.0,99,0.00,,,0.01,LWC V2.00 B2112,2013-01-07 20:02:00,
2013-01-07 12:07:00,50.8,50.5,30.17,SSW,199,0.0,4.0,99,0.00,,,0.01,LWC V2.00 B2112,2013-01-07 20:07:00,
2013-01-07 12:12:00,51.1,50.8,30.17,East,91,1.0,2.0,99,0.00,,,0.01,LWC V2.00 B2112,2013-01-07 20:12:00,
2013-01-07 12:18:00,51.4,51.1,30.17,ESE,112,1.0,2.0,99,0.00,,,0.01,LWC V2.00 B2112,2013-01-07 20:18:00,
2013-01-07 12:23:00,51.6,51.3,30.16,SW,219,2.0,3.0,99,0.00,,,0.01,LWC V2.00 B2112,2013-01-07 20:23:00,
2013-01-07 12:28:00,51.9,51.4,30.16,SSE,161,0.0,1.0,98,0.00,,,0.01,LWC V2.00 B2112,2013-01-07 20:28:00,
2013-01-07 12:33:00,52.4,51.8,30.16,ESE,116,2.0,2.0,98,0.00,,,0.01,LWC V2.00 B2112,2013-01-07 20:33:00,
2013-01-07 12:38:00,52.8,52.0,30.16,SE,134,1.0,2.0,97,0.00,,,0.01,LWC V2.00 B2112,2013-01-07 20:38:00,
2013-01-07 12:43:00,53.3,52.2,30.16,NE,50,0.0,1.0,96,0.00,,,0.01,LWC V2.00 B2112,2013-01-07 20:43:00,
2013-01-07 12:48:00,53.5,52.1,30.16,ESE,113,0.0,5.0,95,0.00,,,0.01,LWC V2.00 B2112,2013-01-07 20:48:00,
2013-01-07 12:53:00,53.5,52.1,30.15,ESE,105,3.0,3.0,95,0.00,,,0.01,LWC V2.00 B2112,2013-01-07 20:53:00,
2013-01-07 12:58:00,53.8,52.4,30.15,SE,138,0.0,1.0,95,0.00,,,0.01,LWC V2.00 B2112,2013-01-07 20:58:00,
2013-01-07 13:03:00,53.9,52.2,30.15,SSE,153,0.0,2.0,94,0.00,,,0.01,LWC V2.00 B2112,2013-01-07 21:03:00,
2013-01-07 13:08:00,54.2,52.5,30.15,ESE,116,2.0,6.0,94,0.00,,,0.01,LWC V2.00 B2112,2013-01-07 21:08:00,
2013-01-07 13:13:00,54.4,52.4,30.15,SE,129,4.0,7.0,93,0.00,,,0.01,LWC V2.00 B2112,2013-01-07 21:13:00,
2013-01-07 13:18:00,54.5,52.5,30.15,East,99,3.0,6.0,93,0.00,,,0.01,LWC V2.00 B2112,2013-01-07 21:18:00,
2013-01-07 13:23:00,54.6,52.6,30.14,East,82,2.0,4.0,93,0.00,,,0.01,LWC V2.00 B2112,2013-01-07 21:23:00,
2013-01-07 13:28:00,54.4,52.1,30.14,ENE,64,1.0,8.0,92,0.00,,,0.01,LWC V2.00 B2112,2013-01-07 21:28:00,
2013-01-07 13:33:00,54.4,52.4,30.14,SE,136,1.0,3.0,93,0.00,,,0.01,LWC V2.00 B2112,2013-01-07 21:33:00,
2013-01-07 13:38:00,54.4,52.4,30.15,ESE,115,0.0,2.0,93,0.00,,,0.01,LWC V2.00 B2112,2013-01-07 21:38:00,
2013-01-07 13:43:00,54.6,52.6,30.14,ENE,77,1.0,4.0,93,0.00,,,0.01,LWC V2.00 B2112,2013-01-07 21:43:00,
2013-01-07 13:48:00,54.8,52.8,30.14,NE,36,2.0,2.0,93,0.00,,,0.01,LWC V2.00 B2112,2013-01-07 21:48:00,
2013-01-07 13:53:00,54.9,52.6,30.14,SSE,153,0.0,2.0,92,0.00,,,0.01,LWC V2.00 B2112,2013-01-07 21:53:00,
2013-01-07 13:58:00,55.1,52.8,30.14,NE,54,0.0,2.0,92,0.00,,,0.01,LWC V2.00 B2112,2013-01-07 21:58:00,
2013-01-07 14:03:00,55.2,52.9,30.14,NNW,333,0.0,1.0,92,0.00,,,0.01,LWC V2.00 B2112,2013-01-07 22:03:00,
2013-01-07 14:08:00,55.3,53.0,30.13,SE,143,0.0,5.0,92,0.00,,,0.01,LWC V2.00 B2112,2013-01-07 22:08:00,
2013-01-07 14:13:00,55.4,53.1,30.13,NNW,333,0.0,3.0,92,0.00,,,0.01,LWC V2.00 B2112,2013-01-07 22:13:00,
2013-01-07 14:18:00,55.3,53.0,30.13,NE,51,0.0,3.0,92,0.00,,,0.01,LWC V2.00 B2112,2013-01-07 22:18:00,
2013-01-07 14:23:00,55.4,52.8,30.13,SE,136,1.0,1.0,91,0.00,,,0.01,LWC V2.00 B2112,2013-01-07 22:23:00,
2013-01-07 14:28:00,55.3,52.7,30.13,ENE,74,0.0,2.0,91,0.00,,,0.01,LWC V2.00 B2112,2013-01-07 22:28:00,
2013-01-07 14:33:00,55.0,52.4,30.13,East,89,2.0,2.0,91,0.00,,,0.01,LWC V2.00 B2112,2013-01-07 22:33:00,
2013-01-07 14:38:00,55.0,52.7,30.13,ENE,67,0.0,2.0,92,0.00,,,0.01,LWC V2.00 B2112,2013-01-07 22:38:00,
2013-01-07 14:43:00,55.0,52.7,30.13,East,84,1.0,1.0,92,0.00,,,0.01,LWC V2.00 B2112,2013-01-07 22:43:00,
2013-01-07 14:48:00,55.0,52.7,30.12,East,82,0.0,1.0,92,0.00,,,0.01,LWC V2.00 B2112,2013-01-07 22:48:00,
2013-01-07 14:53:00,55.1,52.8,30.12,WSW,258,0.0,1.0,92,0.00,,,0.01,LWC V2.00 B2112,2013-01-07 22:53:00,
2013-01-07 14:58:00,55.1,52.8,30.12,SSW,196,0.0,0.0,92,0.00,,,0.01,LWC V2.00 B2112,2013-01-07 22:58:00,
2013-01-07 15:03:00,55.1,52.8,30.12,WNW,297,1.0,2.0,92,0.00,,,0.01,LWC V2.00 B2112,2013-01-07 23:03:00,
2013-01-07 15:08:00,55.0,52.7,30.12,WSW,249,0.0,2.0,92,0.00,,,0.01,LWC V2.00 B2112,2013-01-07 23:08:00,
2013-01-07 15:13:00,54.9,52.6,30.12,SSW,212,0.0,0.0,92,0.00,,,0.01,LWC V2.00 B2112,2013-01-07 23:13:00,
2013-01-07 15:18:00,54.8,52.5,30.13,SW,221,0.0,2.0,92,0.00,,,0.01,LWC V2.00 B2112,2013-01-07 23:18:00,
2013-01-07 15:23:00,54.7,52.4,30.13,ESE,108,2.0,2.0,92,0.00,,,0.01,LWC V2.00 B2112,2013-01-07 23:23:00,
2013-01-07 15:28:00,54.7,52.4,30.13,ESE,115,1.0,1.0,92,0.00,,,0.01,LWC V2.00 B2112,2013-01-07 23:28:00,
2013-01-07 15:33:00,54.6,52.3,30.13,South,182,0.0,2.0,92,0.00,,,0.01,LWC V2.00 B2112,2013-01-07 23:33:00,
2013-01-07 15:38:00,54.7,52.7,30.13,SSE,156,0.0,0.0,93,0.00,,,0.01,LWC V2.00 B2112,2013-01-07 23:38:00,
2013-01-07 15:43:00,54.6,52.6,30.13,ESE,105,0.0,0.0,93,0.00,,,0.01,LWC V2.00 B2112,2013-01-07 23:43:00,
2013-01-07 15:48:00,54.5,52.5,30.13,ESE,119,0.0,0.0,93,0.00,,,0.01,LWC V2.00 B2112,2013-01-07 23:48:00,
2013-01-07 15:53:00,54.5,52.5,30.14,ESE,122,1.0,4.0,93,0.00,,,0.01,LWC V2.00 B2112,2013-01-07 23:53:00,
2013-01-07 15:58:00,54.4,52.4,30.14,SE,139,0.0,2.0,93,0.00,,,0.01,LWC V2.00 B2112,2013-01-07 23:58:00,
2013-01-07 16:03:00,54.4,52.4,30.14,ESE,103,0.0,0.0,93,0.00,,,0.01,LWC V2.00 B2112,2013-01-08 00:03:00,
2013-01-07 16:08:00,54.3,52.3,30.14,ESE,108,0.0,0.0,93,0.00,,,0.01,LWC V2.00 B2112,2013-01-08 00:08:00,
2013-01-07 16:13:00,54.1,52.1,30.14,ESE,108,0.0,0.0,93,0.00,,,0.01,LWC V2.00 B2112,2013-01-08 00:13:00,
2013-01-07 16:18:00,54.0,52.0,30.14,ESE,108,0.0,0.0,93,0.00,,,0.01,LWC V2.00 B2112,2013-01-08 00:18:00,
2013-01-07 16:23:00,53.8,51.8,30.14,ESE,109,0.0,0.0,93,0.00,,,0.01,LWC V2.00 B2112,2013-01-08 00:23:00,
2013-01-07 16:28:00,53.6,51.9,30.14,SE,141,0.0,0.0,94,0.00,,,0.01,LWC V2.00 B2112,2013-01-08 00:28:00,
2013-01-07 16:33:00,53.4,51.7,30.14,SE,142,0.0,0.0,94,0.00,,,0.01,LWC V2.00 B2112,2013-01-08 00:33:00,
2013-01-07 16:38:00,53.2,51.5,30.14,SE,143,0.0,0.0,94,0.00,,,0.01,LWC V2.00 B2112,2013-01-08 00:38:00,
2013-01-07 16:43:00,53.1,51.7,30.14,SSE,152,0.0,2.0,95,0.00,,,0.01,LWC V2.00 B2112,2013-01-08 00:43:00,
2013-01-07 16:48:00,53.1,51.7,30.14,ESE,102,1.0,1.0,95,0.00,,,0.01,LWC V2.00 B2112,2013-01-08 00:48:00,
2013-01-07 16:53:00,53.1,51.7,30.14,East,92,1.0,1.0,95,0.00,,,0.01,LWC V2.00 B2112,2013-01-08 00:53:00,
2013-01-07 16:58:00,53.0,51.6,30.14,East,92,0.0,0.0,95,0.00,,,0.01,LWC V2.00 B2112,2013-01-08 00:58:00,
2013-01-07 17:03:00,52.9,51.5,30.13,East,91,0.0,0.0,95,0.00,,,0.01,LWC V2.00 B2112,2013-01-08 01:03:00,
2013-01-07 17:08:00,52.8,51.4,30.13,East,96,0.0,0.0,95,0.00,,,0.01,LWC V2.00 B2112,2013-01-08 01:08:00,
2013-01-07 17:13:00,52.6,51.2,30.13,East,96,0.0,0.0,95,0.00,,,0.01,LWC V2.00 B2112,2013-01-08 01:13:00,
2013-01-07 17:18:00,52.5,51.1,30.13,East,96,0.0,0.0,95,0.00,,,0.01,LWC V2.00 B2112,2013-01-08 01:18:00,
2013-01-07 17:23:00,52.2,50.8,30.13,East,96,0.0,0.0,95,0.00,,,0.01,LWC V2.00 B2112,2013-01-08 01:23:00,
2013-01-07 17:28:00,52.0,50.6,30.13,East,97,0.0,0.0,95,0.00,,,0.01,LWC V2.00 B2112,2013-01-08 01:28:00,
2013-01-07 17:33:00,51.8,50.4,30.13,SE,141,0.0,0.0,95,0.00,,,0.01,LWC V2.00 B2112,2013-01-08 01:33:00,
2013-01-07 17:38:00,51.6,50.2,30.13,SE,141,0.0,0.0,95,0.00,,,0.01,LWC V2.00 B2112,2013-01-08 01:38:00,
2013-01-07 17:43:00,51.4,50.0,30.13,SE,141,0.0,0.0,95,0.00,,,0.01,LWC V2.00 B2112,2013-01-08 01:43:00,
2013-01-07 17:48:00,51.1,49.7,30.13,SE,141,0.0,0.0,95,0.00,,,0.01,LWC V2.00 B2112,2013-01-08 01:48:00,
2013-01-07 17:53:00,51.0,49.9,30.13,SE,141,0.0,0.0,96,0.00,,,0.01,LWC V2.00 B2112,2013-01-08 01:53:00,
2013-01-07 17:58:00,50.8,49.7,30.13,SE,141,0.0,0.0,96,0.00,,,0.01,LWC V2.00 B2112,2013-01-08 01:58:00,
2013-01-07 18:03:00,50.6,49.5,30.13,SE,141,0.0,0.0,96,0.00,,,0.01,LWC V2.00 B2112,2013-01-08 02:03:00,
2013-01-07 18:08:00,50.5,49.4,30.13,SE,141,0.0,0.0,96,0.00,,,0.01,LWC V2.00 B2112,2013-01-08 02:08:00,
2013-01-07 18:13:00,50.4,49.3,30.13,SE,141,0.0,0.0,96,0.00,,,0.01,LWC V2.00 B2112,2013-01-08 02:13:00,
2013-01-07 18:18:00,50.1,49.0,30.13,SE,141,0.0,0.0,96,0.00,,,0.01,LWC V2.00 B2112,2013-01-08 02:18:00,
2013-01-07 18:23:00,49.9,48.8,30.13,SE,141,0.0,0.0,96,0.00,,,0.01,LWC V2.00 B2112,2013-01-08 02:23:00,
2013-01-07 18:28:00,49.9,48.8,30.13,SE,141,0.0,0.0,96,0.00,,,0.01,LWC V2.00 B2112,2013-01-08 02:28:00,
2013-01-07 18:33:00,49.7,48.6,30.13,SE,141,0.0,0.0,96,0.00,,,0.01,LWC V2.00 B2112,2013-01-08 02:33:00,
2013-01-07 18:38:00,49.6,48.8,30.13,SE,141,0.0,0.0,97,0.00,,,0.01,LWC V2.00 B2112,2013-01-08 02:38:00,
2013-01-07 18:43:00,49.5,48.7,30.13,SE,141,0.0,0.0,97,0.00,,,0.01,LWC V2.00 B2112,2013-01-08 02:43:00,
2013-01-07 18:48:00,49.5,48.7,30.13,SE,141,0.0,0.0,97,0.00,,,0.01,LWC V2.00 B2112,2013-01-08 02:48:00,
2013-01-07 18:53:00,49.5,48.7,30.13,SE,145,0.0,0.0,97,0.00,,,0.01,LWC V2.00 B2112,2013-01-08 02:53:00,
2013-01-07 18:58:00,49.5,48.7,30.13,ESE,105,0.0,0.0,97,0.00,,,0.01,LWC V2.00 B2112,2013-01-08 02:58:00,
2013-01-07 19:03:00,49.5,48.7,30.13,ESE,108,0.0,0.0,97,0.00,,,0.01,LWC V2.00 B2112,2013-01-08 03:03:00,
2013-01-07 19:08:00,49.8,49.3,30.13,East,101,0.0,0.0,98,0.00,,,0.01,LWC V2.00 B2112,2013-01-08 03:08:00,
2013-01-07 19:13:00,49.7,48.9,30.13,East,101,0.0,0.0,97,0.00,,,0.01,LWC V2.00 B2112,2013-01-08 03:13:00,
2013-01-07 19:18:00,49.5,48.7,30.13,East,101,0.0,0.0,97,0.00,,,0.01,LWC V2.00 B2112,2013-01-08 03:18:00,
2013-01-07 19:23:00,49.2,48.4,30.13,East,101,0.0,0.0,97,0.00,,,0.01,LWC V2.00 B2112,2013-01-08 03:23:00,
2013-01-07 19:28:00,49.0,48.2,30.13,East,101,0.0,0.0,97,0.00,,,0.01,LWC V2.00 B2112,2013-01-08 03:28:00,
2013-01-07 19:33:00,48.7,47.9,30.13,East,101,0.0,0.0,97,0.00,,,0.01,LWC V2.00 B2112,2013-01-08 03:33:00,
2013-01-07 19:38:00,48.5,47.7,30.13,East,100,0.0,0.0,97,0.00,,,0.01,LWC V2.00 B2112,2013-01-08 03:38:00,
2013-01-07 19:43:00,48.4,47.6,30.13,East,101,0.0,0.0,97,0.00,,,0.01,LWC V2.00 B2112,2013-01-08 03:43:00,
2013-01-07 19:48:00,48.3,47.5,30.13,East,101,0.0,0.0,97,0.00,,,0.01,LWC V2.00 B2112,2013-01-08 03:48:00,
2013-01-07 19:53:00,48.1,47.3,30.13,East,101,0.0,0.0,97,0.00,,,0.01,LWC V2.00 B2112,2013-01-08 03:53:00,
2013-01-07 19:58:00,47.9,47.1,30.13,East,101,0.0,0.0,97,0.00,,,0.01,LWC V2.00 B2112,2013-01-08 03:58:00,
2013-01-07 20:03:00,47.7,46.9,30.13,East,101,0.0,0.0,97,0.00,,,0.01,LWC V2.00 B2112,2013-01-08 04:03:00,
2013-01-07 20:08:00,47.6,46.8,30.13,East,101,0.0,0.0,97,0.00,,,0.01,LWC V2.00 B2112,2013-01-08 04:08:00,
2013-01-07 20:13:00,47.4,46.6,30.14,East,101,0.0,0.0,97,0.00,,,0.01,LWC V2.00 B2112,2013-01-08 04:13:00,
2013-01-07 20:18:00,47.3,46.5,30.13,East,100,0.0,0.0,97,0.00,,,0.01,LWC V2.00 B2112,2013-01-08 04:18:00,
2013-01-07 20:23:00,47.2,46.7,30.13,East,101,0.0,0.0,98,0.00,,,0.01,LWC V2.00 B2112,2013-01-08 04:23:00,
2013-01-07 20:28:00,47.1,46.6,30.14,East,101,0.0,0.0,98,0.00,,,0.01,LWC V2.00 B2112,2013-01-08 04:28:00,
2013-01-07 20:33:00,47.0,46.5,30.14,East,101,0.0,0.0,98,0.00,,,0.01,LWC V2.00 B2112,2013-01-08 04:33:00,
2013-01-07 20:38:00,46.8,46.0,30.14,East,101,0.0,0.0,97,0.00,,,0.01,LWC V2.00 B2112,2013-01-08 04:38:00,
2013-01-07 20:43:00,46.5,45.7,30.14,East,101,0.0,0.0,97,0.00,,,0.01,LWC V2.00 B2112,2013-01-08 04:43:00,
2013-01-07 20:48:00,46.3,45.5,30.14,East,101,0.0,0.0,97,0.00,,,0.01,LWC V2.00 B2112,2013-01-08 04:48:00,
2013-01-07 20:53:00,46.1,45.6,30.14,East,100,0.0,0.0,98,0.00,,,0.01,LWC V2.00 B2112,2013-01-08 04:53:00,
2013-01-07 20:58:00,46.0,45.5,30.14,East,101,0.0,0.0,98,0.00,,,0.01,LWC V2.00 B2112,2013-01-08 04:58:00,
2013-01-07 21:00:00,45.9,45.4,30.14,East,101,0.0,0.0,98,0.00,,,0.01,LWC V2.00 B2112,2013-01-08 05:00:00,
2013-01-07 21:05:00,45.6,45.1,30.14,East,101,0.0,0.0,98,0.00,,,0.01,LWC V2.00 B2112,2013-01-08 05:05:00,
2013-01-07 21:10:00,45.4,44.9,30.14,East,101,0.0,0.0,98,0.00,,,0.01,LWC V2.00 B2112,2013-01-08 05:10:00,
2013-01-07 21:15:00,45.3,44.8,30.14,East,101,0.0,0.0,98,0.00,,,0.01,LWC V2.00 B2112,2013-01-08 05:15:00,
2013-01-07 21:20:00,45.3,44.8,30.14,East,100,0.0,0.0,98,0.00,,,0.01,LWC V2.00 B2112,2013-01-08 05:20:00,
2013-01-07 21:30:00,45.9,45.4,30.14,North,0,0.0,0.0,98,0.00,,,0.00,LWC V2.00 B2112,2013-01-08 05:30:00,
2013-01-07 21:40:00,45.0,44.5,30.14,North,0,0.0,0.0,98,0.00,,,0.00,LWC V2.00 B2112,2013-01-08 05:40:00,
2013-01-07 21:50:00,45.0,44.5,30.14,North,0,0.0,0.0,98,0.00,,,0.00,LWC V2.00 B2112,2013-01-08 05:50:00,
2013-01-07 22:00:00,45.0,44.5,30.14,North,0,0.0,0.0,98,0.00,,,0.00,LWC V2.00 B2112,2013-01-08 06:00:00,
2013-01-07 22:10:00,45.2,44.7,30.14,North,0,0.0,0.0,98,0.00,,,0.00,LWC V2.00 B2112,2013-01-08 06:10:00,
2013-01-07 22:20:00,45.2,44.7,30.14,North,0,0.0,0.0,98,0.00,,,0.00,LWC V2.00 B2112,2013-01-08 06:20:00,
2013-01-07 22:30:00,45.2,44.7,30.14,North,0,0.0,0.0,98,0.00,,,0.00,LWC V2.00 B2112,2013-01-08 06:30:00,
2013-01-07 22:40:00,45.7,45.2,30.14,North,0,0.0,0.0,98,0.00,,,0.00,LWC V2.00 B2112,2013-01-08 06:40:00,
2013-01-07 22:50:00,45.7,45.2,30.14,North,0,0.0,0.0,98,0.00,,,0.00,LWC V2.00 B2112,2013-01-08 06:50:00,
2013-01-07 23:00:00,45.7,45.2,30.14,North,0,0.0,0.0,98,0.00,,,0.00,LWC V2.00 B2112,2013-01-08 07:00:00,
2013-01-07 23:10:00,46.2,45.7,30.15,North,0,0.0,0.0,98,0.00,,,0.00,LWC V2.00 B2112,2013-01-08 07:10:00,
2013-01-07 23:20:00,46.2,45.7,30.15,North,0,0.0,0.0,98,0.00,,,0.00,LWC V2.00 B2112,2013-01-08 07:20:00,
2013-01-07 23:30:00,46.2,45.7,30.15,North,0,0.0,0.0,98,0.00,,,0.00,LWC V2.00 B2112,2013-01-08 07:30:00,
2013-01-07 23:40:00,45.6,45.1,30.15,North,0,0.0,0.0,98,0.00,,,0.00,LWC V2.00 B2112,2013-01-08 07:40:00,
2013-01-07 23:50:00,45.6,45.1,30.15,North,0,0.0,0.0,98,0.00,,,0.00,LWC V2.00 B2112,2013-01-08 07:50:00,